createdAt,value
2019-02-27T00:05:45.267Z,17.63
2019-02-27T00:08:31.436Z,16.07
2019-02-27T00:11:16.598Z,20.00
2019-02-27T00:14:02.287Z,19.30
2019-02-27T00:16:47.166Z,17.97
2019-02-27T00:19:32.189Z,17.20
2019-02-27T00:22:21.412Z,16.53
2019-02-27T00:25:09.729Z,16.90
2019-02-27T00:27:54.787Z,17.87
2019-02-27T00:30:40.400Z,20.93
2019-02-27T00:33:30.212Z,16.93
2019-02-27T00:36:20.665Z,17.17
2019-02-27T00:39:05.469Z,17.33
2019-02-27T00:41:52.179Z,17.20
2019-02-27T00:44:36.768Z,18.50
2019-02-27T00:50:23.626Z,15.63
2019-02-27T00:53:09.991Z,18.07
2019-02-27T00:55:59.998Z,17.33
2019-02-27T00:58:47.467Z,20.47
2019-02-27T01:01:32.423Z,22.40
2019-02-27T01:04:17.000Z,16.60
2019-02-27T01:07:04.200Z,18.43
2019-02-27T01:09:49.620Z,18.63
2019-02-27T01:12:34.667Z,17.27
2019-02-27T01:15:19.084Z,17.77
2019-02-27T01:18:03.764Z,16.63
2019-02-27T01:20:47.819Z,18.03
2019-02-27T01:23:32.576Z,16.90
2019-02-27T01:26:17.868Z,19.67
2019-02-27T01:29:02.663Z,19.63
2019-02-27T01:31:55.019Z,20.20
2019-02-27T01:34:58.922Z,18.47
2019-02-27T01:37:43.706Z,17.67
2019-02-27T01:40:29.611Z,17.57
2019-02-27T01:43:14.235Z,15.60
2019-02-27T01:46:03.474Z,16.57
2019-02-27T01:48:48.024Z,20.70
2019-02-27T01:51:19.646Z,16.97
2019-02-27T01:54:04.318Z,18.40
2019-02-27T01:56:52.755Z,18.20
2019-02-27T01:59:39.126Z,15.33
2019-02-27T02:02:24.062Z,17.87
2019-02-27T02:05:10.738Z,18.50
2019-02-27T02:07:56.003Z,20.40
2019-02-27T02:10:42.026Z,17.50
2019-02-27T02:13:28.051Z,18.10
2019-02-27T02:16:13.546Z,18.57
2019-02-27T02:18:59.240Z,22.40
2019-02-27T02:21:47.954Z,15.57
2019-02-27T02:24:32.238Z,16.97
2019-02-27T02:27:22.289Z,21.00
2019-02-27T02:30:29.774Z,16.83
2019-02-27T02:33:14.940Z,17.20
2019-02-27T02:36:02.997Z,16.33
2019-02-27T02:38:47.877Z,16.87
2019-02-27T02:45:04.210Z,15.63
2019-02-27T02:47:55.514Z,16.23
2019-02-27T02:50:36.404Z,17.33
2019-02-27T02:53:25.380Z,16.27
2019-02-27T02:56:08.111Z,16.97
2019-02-27T02:58:53.899Z,19.83
2019-02-27T03:01:38.584Z,16.80
2019-02-27T03:04:23.722Z,17.57
2019-02-27T03:07:10.916Z,15.93
2019-02-27T03:13:07.100Z,17.90
2019-02-27T03:16:06.278Z,19.70
2019-02-27T03:18:50.907Z,18.13
2019-02-27T03:22:03.614Z,21.27
2019-02-27T03:25:04.084Z,17.10
2019-02-27T03:28:04.526Z,17.07
2019-02-27T03:30:51.142Z,17.80
2019-02-27T03:36:45.350Z,17.13
2019-02-27T03:39:34.337Z,18.13
2019-02-27T03:45:10.880Z,15.33
2019-02-27T03:47:55.124Z,18.70
2019-02-27T03:50:40.512Z,15.47
2019-02-27T03:53:25.976Z,18.53
2019-02-27T03:56:10.737Z,19.37
2019-02-27T03:58:55.229Z,19.57
2019-02-27T04:01:39.579Z,18.03
2019-02-27T04:04:30.557Z,16.40
2019-02-27T04:07:22.140Z,17.17
2019-02-27T04:10:07.412Z,19.80
2019-02-27T04:12:56.102Z,16.23
2019-02-27T04:18:46.280Z,18.00
2019-02-27T04:21:35.053Z,15.53
2019-02-27T04:24:22.516Z,17.77
2019-02-27T04:27:06.588Z,17.63
2019-02-27T04:32:54.370Z,16.87
2019-02-27T04:35:41.109Z,17.20
2019-02-27T04:38:28.209Z,20.50
2019-02-27T04:41:17.879Z,15.00
2019-02-27T04:46:54.810Z,19.10
2019-02-27T04:49:43.072Z,17.87
2019-02-27T04:52:29.514Z,17.67
2019-02-27T05:01:26.198Z,18.70
2019-02-27T05:04:11.791Z,19.73
2019-02-27T05:06:56.379Z,15.93
2019-02-27T05:09:41.579Z,18.83
2019-02-27T05:12:28.410Z,15.23
2019-02-27T05:15:16.808Z,17.27
2019-02-27T05:18:02.935Z,15.97
2019-02-27T05:20:46.752Z,17.77
2019-02-27T05:23:37.275Z,16.70
2019-02-27T05:26:27.337Z,21.67
2019-02-27T05:29:37.578Z,19.40
2019-02-27T05:32:29.112Z,17.87
2019-02-27T05:35:17.662Z,16.67
2019-02-27T05:38:03.026Z,18.30
2019-02-27T05:40:50.231Z,16.90
2019-02-27T05:43:35.322Z,18.60
2019-02-27T05:46:20.165Z,16.90
2019-02-27T05:49:09.274Z,17.13
2019-02-27T05:51:53.908Z,21.50
2019-02-27T05:54:41.323Z,17.77
2019-02-27T05:57:26.154Z,19.40
2019-02-27T06:00:16.067Z,18.77
2019-02-27T06:06:20.496Z,18.53
2019-02-27T06:12:09.836Z,19.63
2019-02-27T06:17:59.349Z,17.70
2019-02-27T06:20:44.351Z,18.93
2019-02-27T06:23:35.426Z,19.50
2019-02-27T06:26:32.189Z,16.27
2019-02-27T06:32:36.484Z,17.40
2019-02-27T06:35:21.129Z,18.43
2019-02-27T06:38:08.908Z,16.97
2019-02-27T06:40:59.305Z,19.27
2019-02-27T06:43:58.971Z,17.10
2019-02-27T06:46:41.570Z,15.67
2019-02-27T06:49:30.770Z,18.17
2019-02-27T06:52:14.928Z,15.63
2019-02-27T06:55:03.519Z,16.70
2019-02-27T06:57:49.863Z,17.57
2019-02-27T07:00:37.418Z,18.17
2019-02-27T07:03:22.844Z,15.87
2019-02-27T07:06:06.730Z,16.60
2019-02-27T07:08:40.625Z,18.07
2019-02-27T07:11:27.944Z,20.80
2019-02-27T07:14:12.473Z,20.30
2019-02-27T07:17:00.875Z,18.20
2019-02-27T07:22:55.568Z,16.57
2019-02-27T07:25:48.175Z,15.30
2019-02-27T07:28:38.072Z,17.27
2019-02-27T07:31:27.389Z,17.37
2019-02-27T07:34:14.375Z,18.43
2019-02-27T07:37:00.215Z,16.70
2019-02-27T07:39:47.109Z,17.20
2019-02-27T07:42:32.114Z,15.17
2019-02-27T07:45:22.720Z,16.17
2019-02-27T07:48:12.346Z,19.60
2019-02-27T07:54:03.998Z,18.07
2019-02-27T07:56:47.712Z,17.97
2019-02-27T07:59:38.132Z,16.10
2019-02-27T08:02:28.188Z,15.83
2019-02-27T08:05:18.052Z,14.90
2019-02-27T08:08:07.209Z,15.63
2019-02-27T08:13:49.549Z,16.37
2019-02-27T08:19:47.532Z,12.03
2019-02-27T08:22:32.664Z,19.27
2019-02-27T08:25:18.430Z,13.50
2019-02-27T08:28:02.112Z,18.30
2019-02-27T08:30:52.855Z,20.80
2019-02-27T08:33:37.329Z,18.57
2019-02-27T08:36:21.425Z,18.53
2019-02-27T08:39:06.133Z,16.80
2019-02-27T08:41:53.080Z,14.63
2019-02-27T08:44:38.605Z,16.23
2019-02-27T08:47:22.106Z,16.97
2019-02-27T08:50:06.515Z,20.57
2019-02-27T08:55:59.457Z,19.90
2019-02-27T08:59:08.864Z,14.03
2019-02-27T09:01:57.268Z,13.93
2019-02-27T09:04:53.911Z,15.40
2019-02-27T09:13:49.868Z,12.70
2019-02-27T09:16:36.045Z,12.83
2019-02-27T09:25:29.244Z,14.50
2019-02-27T09:28:14.270Z,12.60
2019-02-27T09:31:04.452Z,12.10
2019-02-27T09:40:29.510Z,17.27
2019-02-27T09:43:14.488Z,14.57
2019-02-27T09:46:01.954Z,13.47
2019-02-27T09:51:57.306Z,12.30
2019-02-27T09:54:46.592Z,19.87
2019-02-27T10:15:26.011Z,14.90
2019-02-27T10:21:16.149Z,14.23
2019-02-27T10:23:48.852Z,19.80
2019-02-27T10:26:33.610Z,19.83
2019-02-27T10:29:21.268Z,15.90
2019-02-27T10:32:05.366Z,15.83
2019-02-27T10:37:57.106Z,14.37
2019-02-27T10:43:44.897Z,16.10
2019-02-27T10:46:29.864Z,14.07
2019-02-27T10:49:13.883Z,15.43
2019-02-27T10:51:58.354Z,16.37
2019-02-27T10:54:46.938Z,17.40
2019-02-27T11:06:49.353Z,16.50
2019-02-27T11:12:41.827Z,16.83
2019-02-27T11:18:29.963Z,17.63
2019-02-27T11:21:15.459Z,15.40
2019-02-27T11:23:59.919Z,16.77
2019-02-27T11:26:44.292Z,16.27
2019-02-27T11:29:28.185Z,16.40
2019-02-27T11:32:11.973Z,14.55
2019-02-27T11:34:56.337Z,18.17
2019-02-27T11:37:47.774Z,14.87
2019-02-27T11:40:57.646Z,13.80
2019-02-27T11:43:41.823Z,12.70
2019-02-27T11:52:12.946Z,13.75
2019-02-27T11:55:04.795Z,16.65
2019-02-27T11:57:48.660Z,14.80
2019-02-27T12:00:34.379Z,13.25
2019-02-27T12:03:23.537Z,17.67
2019-02-27T12:09:10.416Z,11.85
2019-02-27T12:11:45.407Z,11.35
2019-02-27T12:20:53.209Z,15.72
2019-02-27T12:23:44.226Z,18.00
2019-02-27T12:29:27.226Z,22.35
2019-02-27T12:32:11.148Z,18.48
2019-02-27T12:38:08.531Z,19.23
2019-02-27T12:41:03.127Z,16.12
2019-02-27T12:43:52.201Z,17.00
2019-02-27T12:46:34.187Z,18.40
2019-02-27T12:49:23.608Z,16.70
2019-02-27T12:52:09.042Z,18.15
2019-02-27T12:58:01.168Z,17.48
2019-02-27T13:00:45.865Z,15.28
2019-02-27T13:03:29.773Z,15.20
2019-02-27T13:06:13.911Z,13.75
2019-02-27T13:09:03.346Z,15.10
2019-02-27T13:11:54.858Z,13.50
2019-02-27T13:14:41.365Z,17.15
2019-02-27T13:17:25.054Z,13.45
2019-02-27T13:23:10.124Z,12.98
2019-02-27T13:25:57.513Z,15.18
2019-02-27T13:28:42.202Z,13.35
2019-02-27T13:31:26.984Z,13.70
2019-02-27T13:34:16.939Z,13.58
2019-02-27T13:37:01.945Z,12.37
2019-02-27T13:42:55.088Z,11.55
2019-02-27T13:45:41.521Z,13.93
2019-02-27T13:48:29.770Z,12.43
2019-02-27T13:51:13.779Z,12.23
2019-02-27T13:54:04.018Z,14.00
2019-02-27T13:56:52.212Z,9.23
2019-02-27T13:59:36.266Z,13.95
2019-02-27T14:05:08.605Z,11.97
2019-02-27T14:07:57.290Z,9.95
2019-02-27T14:10:39.099Z,13.35
2019-02-27T14:13:25.586Z,10.75
2019-02-27T14:16:12.224Z,9.65
2019-02-27T14:19:03.066Z,11.05
2019-02-27T14:21:50.591Z,10.03
2019-02-27T14:27:40.573Z,10.10
2019-02-27T14:30:24.421Z,8.63
2019-02-27T14:33:11.179Z,11.15
2019-02-27T14:35:57.403Z,9.70
2019-02-27T14:38:45.484Z,9.38
2019-02-27T14:47:35.838Z,13.80
2019-02-27T14:50:21.704Z,9.30
2019-02-27T14:53:05.885Z,10.50
2019-02-27T14:55:50.293Z,9.40
2019-02-27T15:01:49.263Z,9.30
2019-02-27T15:04:43.541Z,11.20
2019-02-27T15:07:28.327Z,9.23
2019-02-27T15:10:13.645Z,10.15
2019-02-27T15:12:45.866Z,11.35
2019-02-27T15:15:31.391Z,9.43
2019-02-27T15:21:36.814Z,7.05
2019-02-27T15:24:23.474Z,8.75
2019-02-27T15:27:08.231Z,9.03
2019-02-27T15:29:54.863Z,10.85
2019-02-27T15:32:39.830Z,10.80
2019-02-27T15:35:12.451Z,8.58
2019-02-27T15:41:05.506Z,9.18
2019-02-27T15:44:00.474Z,11.10
2019-02-27T15:47:20.544Z,9.53
2019-02-27T15:49:56.253Z,12.33
2019-02-27T15:55:26.826Z,9.23
2019-02-27T15:58:14.938Z,11.60
2019-02-27T16:01:02.894Z,10.58
2019-02-27T16:03:47.340Z,10.00
2019-02-27T16:06:19.113Z,8.17
2019-02-27T16:09:02.299Z,11.47
2019-02-27T16:11:48.151Z,10.87
2019-02-27T16:14:32.068Z,11.93
2019-02-27T16:17:18.037Z,9.93
2019-02-27T16:20:03.571Z,13.17
2019-02-27T16:22:52.691Z,10.70
2019-02-27T16:25:38.994Z,11.70
2019-02-27T16:31:32.506Z,12.20
2019-02-27T16:37:23.635Z,11.77
2019-02-27T16:40:08.706Z,10.67
2019-02-27T16:42:40.240Z,11.50
2019-02-27T16:51:35.382Z,13.43
2019-02-27T16:54:19.634Z,19.13
2019-02-27T16:57:04.024Z,14.50
2019-02-27T16:59:47.405Z,17.83
2019-02-27T17:02:31.821Z,13.30
2019-02-27T17:05:17.497Z,13.93
2019-02-27T17:08:02.654Z,16.13
2019-02-27T17:13:49.457Z,15.83
2019-02-27T17:16:44.908Z,15.10
2019-02-27T17:19:44.916Z,16.37
2019-02-27T17:22:34.359Z,15.60
2019-02-27T17:25:18.224Z,17.37
2019-02-27T17:28:07.200Z,18.13
2019-02-27T17:30:54.810Z,14.53
2019-02-27T17:36:40.781Z,15.93
2019-02-27T17:39:31.048Z,13.30
2019-02-27T17:42:18.282Z,16.10
2019-02-27T17:44:59.926Z,16.93
2019-02-27T17:47:49.743Z,14.60
2019-02-27T17:50:35.472Z,13.33
2019-02-27T17:53:22.939Z,13.27
2019-02-27T17:56:06.959Z,19.27
2019-02-27T17:58:51.008Z,14.80
2019-02-27T18:01:35.181Z,13.47
2019-02-27T18:04:20.120Z,15.50
2019-02-27T18:07:06.435Z,14.37
2019-02-27T18:09:50.269Z,21.07
2019-02-27T18:12:39.857Z,12.60
2019-02-27T18:15:30.730Z,10.50
2019-02-27T18:18:19.285Z,12.40
2019-02-27T18:24:08.186Z,11.57
2019-02-27T18:26:55.924Z,11.03
2019-02-27T18:29:41.231Z,10.90
2019-02-27T18:32:25.977Z,9.80
2019-02-27T18:41:14.473Z,10.17
2019-02-27T18:47:10.194Z,10.20
2019-02-27T18:52:55.578Z,11.27
2019-02-27T18:55:44.614Z,12.03
2019-02-27T18:58:28.999Z,16.27
2019-02-27T19:01:12.521Z,11.27
2019-02-27T19:04:01.445Z,11.97
2019-02-27T19:10:03.754Z,12.03
2019-02-27T19:12:52.792Z,9.70
2019-02-27T19:15:39.587Z,11.53
2019-02-27T19:18:29.961Z,11.70
2019-02-27T19:21:17.228Z,11.43
2019-02-27T19:24:01.882Z,13.80
2019-02-27T19:26:33.633Z,9.17
2019-02-27T19:29:17.947Z,11.07
2019-02-27T19:32:08.992Z,11.73
2019-02-27T19:34:52.937Z,12.50
2019-02-27T19:37:39.194Z,11.73
2019-02-27T19:40:12.046Z,15.73
2019-02-27T19:42:56.203Z,13.43
2019-02-27T19:45:42.546Z,10.33
2019-02-27T19:51:38.031Z,12.30
2019-02-27T19:54:22.270Z,14.00
2019-02-27T19:57:08.485Z,12.57
2019-02-27T19:59:40.215Z,16.53
2019-02-27T20:02:26.044Z,16.00
2019-02-27T20:05:10.228Z,12.23
2019-02-27T20:07:56.186Z,13.17
2019-02-27T20:10:30.975Z,12.80
2019-02-27T20:16:35.569Z,54.77
2019-02-27T20:19:22.804Z,47.97
2019-02-27T20:22:07.551Z,34.23
2019-02-27T20:24:52.196Z,22.33
2019-02-27T20:27:38.278Z,24.07
2019-02-27T20:30:23.822Z,17.93
2019-02-27T20:33:10.302Z,17.90
2019-02-27T20:35:55.803Z,11.93
2019-02-27T20:38:41.698Z,12.67
2019-02-27T20:41:13.297Z,10.20
2019-02-27T20:43:44.833Z,11.53
2019-02-27T20:46:30.027Z,11.30
2019-02-27T20:49:14.450Z,10.00
2019-02-27T20:51:51.166Z,8.60
2019-02-27T20:55:04.873Z,8.23
2019-02-27T21:00:36.514Z,12.73
2019-02-27T21:03:26.880Z,10.03
2019-02-27T21:06:08.786Z,11.30
2019-02-27T21:08:58.086Z,8.37
2019-02-27T21:11:32.273Z,10.10
2019-02-27T21:14:05.964Z,10.30
2019-02-27T21:16:52.945Z,9.07
2019-02-27T21:19:38.797Z,11.17
2019-02-27T21:25:28.737Z,11.37
2019-02-27T21:28:21.185Z,10.63
2019-02-27T21:34:27.062Z,10.03
2019-02-27T21:37:16.171Z,10.10
2019-02-27T21:40:06.150Z,12.27
2019-02-27T21:42:52.834Z,12.87
2019-02-27T21:45:40.558Z,11.67
2019-02-27T21:48:26.895Z,14.50
2019-02-27T21:51:16.560Z,8.90
2019-02-27T21:57:13.324Z,9.93
2019-02-27T21:59:59.609Z,14.43
2019-02-27T22:02:33.243Z,10.00
2019-02-27T22:08:28.202Z,10.67
2019-02-27T22:11:12.673Z,15.17
2019-02-27T22:14:00.494Z,17.33
2019-02-27T22:16:49.528Z,11.33
2019-02-27T22:19:38.412Z,16.63
2019-02-27T22:22:22.807Z,12.40
2019-02-27T22:25:12.514Z,13.87
2019-02-27T22:27:58.424Z,15.53
2019-02-27T22:30:43.754Z,14.37
2019-02-27T22:33:29.617Z,21.83
2019-02-27T22:36:14.169Z,16.23
2019-02-27T22:39:00.202Z,17.47
2019-02-27T22:41:47.040Z,11.17
2019-02-27T22:44:33.156Z,13.07
2019-02-27T22:47:18.457Z,14.80
2019-02-27T22:50:06.914Z,18.37
2019-02-27T22:56:03.245Z,14.93
2019-02-27T22:58:51.599Z,14.53
2019-02-27T23:01:41.740Z,17.73
2019-02-27T23:04:26.295Z,15.70
2019-02-27T23:07:11.005Z,23.60
2019-02-27T23:10:00.643Z,19.27
2019-02-27T23:12:39.502Z,14.97
2019-02-27T23:15:32.785Z,19.80
2019-02-27T23:18:16.832Z,15.50
2019-02-27T23:21:00.842Z,14.67
2019-02-27T23:23:45.960Z,14.97
2019-02-27T23:26:31.505Z,15.07
2019-02-27T23:29:16.115Z,13.87
2019-02-27T23:32:05.731Z,17.43
2019-02-27T23:34:50.458Z,18.27
2019-02-27T23:37:39.837Z,14.57
2019-02-27T23:40:25.377Z,20.13
2019-02-27T23:43:09.833Z,15.87
2019-02-27T23:45:54.001Z,19.60
2019-02-27T23:51:38.473Z,17.63
2019-02-27T23:54:23.069Z,16.20
2019-02-27T23:57:07.489Z,16.50
